createdAt,value
2023-04-16T00:00:49.582Z,10.10
2023-04-16T00:03:21.407Z,11.30
2023-04-16T00:05:56.086Z,10.80
2023-04-16T00:08:27.851Z,9.30
2023-04-16T00:10:59.249Z,11.50
2023-04-16T00:13:30.811Z,9.50
2023-04-16T00:16:02.097Z,10.90
2023-04-16T00:18:33.640Z,10.80
2023-04-16T00:21:05.000Z,12.30
2023-04-16T00:23:36.944Z,10.70
2023-04-16T00:26:08.510Z,11.80
2023-04-16T00:28:40.299Z,10.40
2023-04-16T00:31:11.753Z,11.10
2023-04-16T00:33:43.156Z,11.30
2023-04-16T00:36:14.567Z,11.50
2023-04-16T00:38:45.972Z,10.10
2023-04-16T00:41:17.568Z,12.20
2023-04-16T00:43:48.884Z,10.90
2023-04-16T00:46:21.465Z,12.70
2023-04-16T00:48:55.409Z,11.40
2023-04-16T00:51:27.405Z,13.10
2023-04-16T00:53:59.609Z,12.50
2023-04-16T00:56:31.833Z,10.80
2023-04-16T00:59:03.248Z,12.00
2023-04-16T01:01:34.849Z,13.50
2023-04-16T01:04:07.406Z,12.00
2023-04-16T01:06:38.898Z,11.60
2023-04-16T01:09:11.457Z,11.60
2023-04-16T01:11:42.933Z,12.40
2023-04-16T01:14:14.552Z,10.60
2023-04-16T01:16:46.168Z,12.00
2023-04-16T01:19:17.608Z,10.30
2023-04-16T01:21:49.062Z,10.80
2023-04-16T01:24:20.627Z,10.30
2023-04-16T01:26:51.929Z,10.10
2023-04-16T01:29:23.167Z,12.00
2023-04-16T01:31:54.617Z,10.40
2023-04-16T01:34:25.989Z,11.30
2023-04-16T01:36:57.406Z,10.80
2023-04-16T01:39:28.860Z,8.60
2023-04-16T01:42:00.033Z,10.00
2023-04-16T01:44:31.555Z,11.50
2023-04-16T01:47:02.904Z,10.20
2023-04-16T01:49:35.141Z,11.40
2023-04-16T01:52:08.643Z,9.60
2023-04-16T01:54:40.052Z,9.90
2023-04-16T01:57:11.431Z,12.00
2023-04-16T01:59:42.912Z,10.90
2023-04-16T02:02:16.657Z,11.40
2023-04-16T02:04:48.891Z,9.60
2023-04-16T02:07:20.264Z,9.60
2023-04-16T02:09:51.752Z,11.10
2023-04-16T02:12:23.127Z,10.50
2023-04-16T02:14:54.616Z,9.80
2023-04-16T02:17:25.993Z,10.10
2023-04-16T02:19:57.553Z,10.10
2023-04-16T02:22:28.885Z,12.40
2023-04-16T02:25:00.379Z,8.40
2023-04-16T02:27:31.780Z,11.10
2023-04-16T02:30:04.607Z,10.10
2023-04-16T02:32:36.119Z,11.30
2023-04-16T02:35:08.477Z,11.60
2023-04-16T02:37:41.194Z,8.90
2023-04-16T02:40:14.753Z,12.90
2023-04-16T02:42:46.332Z,9.20
2023-04-16T02:45:18.228Z,10.50
2023-04-16T02:47:49.569Z,11.40
2023-04-16T02:50:21.475Z,11.90
2023-04-16T02:52:53.333Z,10.30
2023-04-16T02:55:24.999Z,10.20
2023-04-16T02:57:56.430Z,9.50
2023-04-16T03:00:27.937Z,10.20
2023-04-16T03:02:59.603Z,12.00
2023-04-16T03:05:31.232Z,11.40
2023-04-16T03:08:02.691Z,12.20
2023-04-16T03:10:35.299Z,11.60
2023-04-16T03:13:07.085Z,11.40
2023-04-16T03:15:38.772Z,10.70
2023-04-16T03:18:10.414Z,11.30
2023-04-16T03:20:41.756Z,10.80
2023-04-16T03:23:13.394Z,11.00
2023-04-16T03:25:47.438Z,12.70
2023-04-16T03:28:18.954Z,11.30
2023-04-16T03:30:55.388Z,13.80
2023-04-16T03:33:27.350Z,14.80
2023-04-16T03:36:01.759Z,12.80
2023-04-16T03:38:33.711Z,11.20
2023-04-16T03:41:05.387Z,12.40
2023-04-16T03:43:46.140Z,11.40
2023-04-16T03:46:29.106Z,12.40
2023-04-16T03:49:14.579Z,13.70
2023-04-16T03:51:56.760Z,13.00
2023-04-16T03:54:38.352Z,11.20
2023-04-16T03:57:17.571Z,12.90
2023-04-16T03:59:59.724Z,13.30
2023-04-16T04:02:31.654Z,14.00
2023-04-16T04:05:03.561Z,13.60
2023-04-16T04:07:35.080Z,14.90
2023-04-16T04:10:06.932Z,15.20
2023-04-16T04:12:38.326Z,15.50
2023-04-16T04:15:11.940Z,14.90
2023-04-16T04:17:43.485Z,14.40
2023-04-16T04:20:16.045Z,13.40
2023-04-16T04:22:47.341Z,12.40
2023-04-16T04:25:19.856Z,11.90
2023-04-16T04:27:51.272Z,12.40
2023-04-16T04:30:22.809Z,11.70
2023-04-16T04:32:54.154Z,16.00
2023-04-16T04:35:26.014Z,14.60
2023-04-16T04:37:57.679Z,14.00
2023-04-16T04:40:29.358Z,13.10
2023-04-16T04:43:00.801Z,13.40
2023-04-16T04:45:32.480Z,13.20
2023-04-16T04:48:04.082Z,12.50
2023-04-16T04:50:35.546Z,14.10
2023-04-16T04:53:10.482Z,14.00
2023-04-16T04:55:41.841Z,16.00
2023-04-16T04:58:13.404Z,14.60
2023-04-16T05:00:45.062Z,13.50
2023-04-16T05:03:20.836Z,14.20
2023-04-16T05:05:52.314Z,13.90
2023-04-16T05:08:23.752Z,17.50
2023-04-16T05:10:55.301Z,14.90
2023-04-16T05:13:27.588Z,14.50
2023-04-16T05:15:58.918Z,16.20
2023-04-16T05:18:30.634Z,13.90
2023-04-16T05:21:02.072Z,13.00
2023-04-16T05:23:33.952Z,13.80
2023-04-16T05:26:05.483Z,13.30
2023-04-16T05:28:37.034Z,12.90
2023-04-16T05:31:08.673Z,14.10
2023-04-16T05:33:40.761Z,12.60
2023-04-16T05:36:12.286Z,13.50
2023-04-16T05:38:43.722Z,14.00
2023-04-16T05:41:15.078Z,13.70
2023-04-16T05:43:46.619Z,15.40
2023-04-16T05:46:18.161Z,13.30
2023-04-16T05:48:49.623Z,14.10
2023-04-16T05:51:23.357Z,12.20
2023-04-16T05:53:55.005Z,13.70
2023-04-16T05:56:27.412Z,13.80
2023-04-16T05:58:59.165Z,13.10
2023-04-16T06:01:31.129Z,14.80
2023-04-16T06:04:03.908Z,14.40
2023-04-16T06:06:35.479Z,12.90
2023-04-16T06:09:07.127Z,16.30
2023-04-16T06:11:38.727Z,15.90
2023-04-16T06:14:10.160Z,16.00
2023-04-16T06:16:41.969Z,16.70
2023-04-16T06:19:13.358Z,14.70
2023-04-16T06:21:44.921Z,15.00
2023-04-16T06:24:16.353Z,15.90
2023-04-16T06:26:47.958Z,14.40
2023-04-16T06:29:21.298Z,18.20
2023-04-16T06:31:54.175Z,17.20
2023-04-16T06:34:26.313Z,15.90
2023-04-16T06:36:58.419Z,19.30
2023-04-16T06:39:30.057Z,18.40
2023-04-16T06:42:01.885Z,16.00
2023-04-16T06:44:33.389Z,16.20
2023-04-16T06:47:06.153Z,16.20
2023-04-16T06:49:37.734Z,18.80
2023-04-16T06:52:10.368Z,17.20
2023-04-16T06:54:42.295Z,18.00
2023-04-16T06:57:13.883Z,18.60
2023-04-16T06:59:45.490Z,16.20
2023-04-16T07:02:17.123Z,18.40
2023-04-16T07:04:49.375Z,16.70
2023-04-16T07:07:20.961Z,16.90
2023-04-16T07:09:52.416Z,17.10
2023-04-16T07:12:23.847Z,20.80
2023-04-16T07:14:55.193Z,17.60
2023-04-16T07:17:27.650Z,20.90
2023-04-16T07:20:03.570Z,17.40
2023-04-16T07:22:35.500Z,17.80
2023-04-16T07:25:08.714Z,15.60
2023-04-16T07:27:40.995Z,15.20
2023-04-16T07:30:14.537Z,15.40
2023-04-16T07:32:47.498Z,16.70
2023-04-16T07:35:20.857Z,15.00
2023-04-16T07:37:52.669Z,17.10
2023-04-16T07:40:24.816Z,16.90
2023-04-16T07:42:56.731Z,17.50
2023-04-16T07:45:28.446Z,15.50
2023-04-16T07:48:00.696Z,16.90
2023-04-16T07:50:32.326Z,14.50
2023-04-16T07:53:03.958Z,16.20
2023-04-16T07:55:35.932Z,18.20
2023-04-16T07:58:09.874Z,15.90
2023-04-16T08:00:42.640Z,16.80
2023-04-16T08:03:16.481Z,24.80
2023-04-16T08:05:49.446Z,20.30
2023-04-16T08:08:21.091Z,17.70
2023-04-16T08:10:56.102Z,15.70
2023-04-16T08:13:27.769Z,15.40
2023-04-16T08:15:59.325Z,19.10
2023-04-16T08:18:31.526Z,17.10
2023-04-16T08:21:02.983Z,17.60
2023-04-16T08:23:34.965Z,16.20
2023-04-16T08:26:06.456Z,15.20
2023-04-16T08:28:47.081Z,16.30
2023-04-16T08:31:20.112Z,18.20
2023-04-16T08:33:51.524Z,16.20
2023-04-16T08:36:23.120Z,18.70
2023-04-16T08:38:54.550Z,16.40
2023-04-16T08:41:29.972Z,16.40
2023-04-16T08:44:05.644Z,18.20
2023-04-16T08:46:42.256Z,14.70
2023-04-16T08:49:19.890Z,16.40
2023-04-16T08:51:54.113Z,13.90
2023-04-16T08:54:36.278Z,16.50
2023-04-16T08:57:12.083Z,15.40
2023-04-16T08:59:47.961Z,18.90
2023-04-16T09:02:20.009Z,17.30
2023-04-16T09:04:52.882Z,16.30
2023-04-16T09:07:26.156Z,17.70
2023-04-16T09:09:59.482Z,17.90
2023-04-16T09:12:31.690Z,20.40
2023-04-16T09:15:05.296Z,18.30
2023-04-16T09:17:38.509Z,18.50
2023-04-16T09:20:12.836Z,18.70
2023-04-16T09:22:45.018Z,18.80
2023-04-16T09:25:16.547Z,19.30
2023-04-16T09:27:51.089Z,20.10
2023-04-16T09:30:29.207Z,19.90
2023-04-16T09:36:14.085Z,19.80
2023-04-16T09:38:56.252Z,19.60
2023-04-16T09:41:31.554Z,20.60
2023-04-16T09:44:05.847Z,21.70
2023-04-16T09:46:42.236Z,22.00
2023-04-16T09:49:15.709Z,26.40
2023-04-16T09:51:48.825Z,25.20
2023-04-16T09:54:21.404Z,29.90
2023-04-16T09:56:53.090Z,26.40
2023-04-16T09:59:25.816Z,28.70
2023-04-16T10:02:15.886Z,27.50
2023-04-16T10:04:53.128Z,28.70
2023-04-16T10:07:29.556Z,28.00
2023-04-16T10:10:01.629Z,25.20
2023-04-16T10:12:34.150Z,27.70
2023-04-16T10:15:06.268Z,30.30
2023-04-16T10:17:38.973Z,26.80
2023-04-16T10:20:12.260Z,22.90
2023-04-16T10:22:44.154Z,23.90
2023-04-16T10:25:16.974Z,22.30
2023-04-16T10:27:49.304Z,23.00
2023-04-16T10:30:22.015Z,20.50
2023-04-16T10:32:54.079Z,21.20
2023-04-16T10:35:27.252Z,19.50
2023-04-16T10:38:21.322Z,18.30
2023-04-16T10:40:52.883Z,19.30
2023-04-16T10:43:26.833Z,19.50
2023-04-16T10:45:58.950Z,18.40
2023-04-16T10:48:46.474Z,18.20
2023-04-16T10:51:33.362Z,17.90
2023-04-16T10:54:23.192Z,26.60
2023-04-16T10:56:55.961Z,23.60
2023-04-16T10:59:31.745Z,21.70
2023-04-16T11:02:08.531Z,19.20
2023-04-16T11:04:41.269Z,14.40
2023-04-16T11:07:19.907Z,17.40
2023-04-16T11:09:59.878Z,14.70
2023-04-16T11:12:38.300Z,14.70
2023-04-16T11:15:11.804Z,15.30
2023-04-16T11:17:45.045Z,16.70
2023-04-16T11:20:22.798Z,17.10
2023-04-16T11:22:56.220Z,17.10
2023-04-16T11:25:29.961Z,16.30
2023-04-16T11:28:03.573Z,18.00
2023-04-16T11:30:36.573Z,19.50
2023-04-16T11:33:10.062Z,16.90
2023-04-16T11:35:43.747Z,19.40
2023-04-16T11:38:15.761Z,17.50
2023-04-16T11:40:51.951Z,16.00
2023-04-16T11:43:24.022Z,16.10
2023-04-16T11:46:10.255Z,14.10
2023-04-16T11:48:55.689Z,13.60
2023-04-16T11:51:27.434Z,14.30
2023-04-16T11:53:59.074Z,13.10
2023-04-16T11:56:33.179Z,12.20
2023-04-16T11:59:13.145Z,11.50
2023-04-16T12:01:48.341Z,13.60
2023-04-16T12:04:22.684Z,12.50
2023-04-16T12:07:14.072Z,12.70
2023-04-16T12:09:46.121Z,10.10
2023-04-16T12:12:32.433Z,11.40
2023-04-16T12:15:05.059Z,10.20
2023-04-16T12:17:37.814Z,9.20
2023-04-16T12:20:12.958Z,10.30
2023-04-16T12:22:48.392Z,9.10
2023-04-16T12:25:20.348Z,9.60
2023-04-16T12:27:54.306Z,10.60
2023-04-16T12:30:27.697Z,9.50
2023-04-16T12:33:17.198Z,10.90
2023-04-16T12:35:48.989Z,12.00
2023-04-16T12:38:22.813Z,12.10
2023-04-16T12:40:57.468Z,14.40
2023-04-16T12:43:29.852Z,13.10
2023-04-16T12:46:04.185Z,10.40
2023-04-16T12:51:05.679Z,9.70
2023-04-16T12:53:37.992Z,9.40
2023-04-16T12:56:09.715Z,10.10
2023-04-16T12:58:41.352Z,10.50
2023-04-16T13:01:13.100Z,10.60
2023-04-16T13:03:44.871Z,11.10
2023-04-16T13:06:17.536Z,9.40
2023-04-16T13:08:49.172Z,9.90
2023-04-16T13:11:20.699Z,9.50
2023-04-16T13:13:52.103Z,11.10
2023-04-16T13:16:23.666Z,9.20
2023-04-16T13:18:55.507Z,10.70
2023-04-16T13:21:27.515Z,12.10
2023-04-16T13:23:59.282Z,12.40
2023-04-16T13:26:30.853Z,12.40
2023-04-16T13:29:02.456Z,12.20
2023-04-16T13:31:34.111Z,12.70
2023-04-16T13:34:06.550Z,11.10
2023-04-16T13:36:38.093Z,12.80
2023-04-16T13:39:12.146Z,13.30
2023-04-16T13:41:46.250Z,13.40
2023-04-16T13:44:17.666Z,15.00
2023-04-16T13:46:50.027Z,13.00
2023-04-16T13:49:22.019Z,11.30
2023-04-16T13:51:53.498Z,9.60
2023-04-16T13:54:25.641Z,12.40
2023-04-16T13:57:02.605Z,11.60
2023-04-16T13:59:35.240Z,11.00
2023-04-16T14:02:13.349Z,14.30
2023-04-16T14:04:45.185Z,13.60
2023-04-16T14:07:17.509Z,11.90
2023-04-16T14:09:49.018Z,12.80
2023-04-16T14:12:22.498Z,13.40
2023-04-16T14:14:53.996Z,13.60
2023-04-16T14:17:25.744Z,11.90
2023-04-16T14:19:57.644Z,11.70
2023-04-16T14:22:30.751Z,10.60
2023-04-16T14:25:03.861Z,11.20
2023-04-16T14:27:36.503Z,13.10
2023-04-16T14:30:09.383Z,11.40
2023-04-16T14:32:44.578Z,10.60
2023-04-16T14:35:17.127Z,9.00
2023-04-16T14:37:49.085Z,11.40
2023-04-16T14:40:22.080Z,10.70
2023-04-16T14:42:54.055Z,10.80
2023-04-16T14:45:29.361Z,12.10
2023-04-16T14:48:01.588Z,10.50
2023-04-16T14:50:33.321Z,12.60
2023-04-16T14:53:05.399Z,13.00
2023-04-16T14:55:37.463Z,11.10
2023-04-16T14:58:09.748Z,12.50
2023-04-16T15:00:41.512Z,11.30
2023-04-16T15:03:13.284Z,9.30
2023-04-16T15:05:45.211Z,9.70
2023-04-16T15:08:17.124Z,11.30
2023-04-16T15:10:48.691Z,11.40
2023-04-16T15:13:21.805Z,10.80
2023-04-16T15:15:53.552Z,12.00
2023-04-16T15:18:29.065Z,9.00
2023-04-16T15:21:01.511Z,10.10
2023-04-16T15:23:34.896Z,9.20
2023-04-16T15:26:07.674Z,9.60
2023-04-16T15:28:39.905Z,9.70
2023-04-16T15:31:13.064Z,8.00
2023-04-16T15:33:45.505Z,10.40
2023-04-16T15:36:21.273Z,9.50
2023-04-16T15:38:53.553Z,7.70
2023-04-16T15:41:26.429Z,9.70
2023-04-16T15:43:59.956Z,8.50
2023-04-16T15:46:36.931Z,10.90
2023-04-16T15:49:10.576Z,10.20
2023-04-16T15:51:45.333Z,9.90
2023-04-16T15:54:22.852Z,9.90
2023-04-16T15:56:56.132Z,8.90
2023-04-16T15:59:29.369Z,10.20
2023-04-16T16:02:02.227Z,9.30
2023-04-16T16:04:34.652Z,9.40
2023-04-16T16:07:07.416Z,8.40
2023-04-16T16:09:40.311Z,8.80
2023-04-16T16:12:12.971Z,7.60
2023-04-16T16:14:45.052Z,10.50
2023-04-16T16:17:18.025Z,10.80
2023-04-16T16:19:50.173Z,9.00
2023-04-16T16:22:24.199Z,8.20
2023-04-16T16:24:58.900Z,9.90
2023-04-16T16:27:32.626Z,9.30
2023-04-16T16:30:10.355Z,8.60
2023-04-16T16:32:44.673Z,9.80
2023-04-16T16:35:26.197Z,9.00
2023-04-16T16:38:06.997Z,9.50
2023-04-16T16:40:49.549Z,7.70
2023-04-16T16:43:24.310Z,10.30
2023-04-16T16:46:08.492Z,8.70
2023-04-16T16:48:51.242Z,7.10
2023-04-16T16:51:24.056Z,8.50
2023-04-16T16:54:00.922Z,8.30
2023-04-16T16:56:32.873Z,8.50
2023-04-16T16:59:19.798Z,10.00
2023-04-16T17:01:52.827Z,9.60
2023-04-16T17:04:24.859Z,10.60
2023-04-16T17:06:57.032Z,8.80
2023-04-16T17:09:30.816Z,9.70
2023-04-16T17:12:05.224Z,9.00
2023-04-16T17:14:42.331Z,8.60
2023-04-16T17:17:13.879Z,9.10
2023-04-16T17:19:46.873Z,8.80
2023-04-16T17:22:19.994Z,8.20
2023-04-16T17:24:52.642Z,8.10
2023-04-16T17:27:28.599Z,9.70
2023-04-16T17:30:02.714Z,9.20
2023-04-16T17:32:35.623Z,9.00
2023-04-16T17:35:13.326Z,9.80
2023-04-16T17:37:47.384Z,8.60
2023-04-16T17:40:21.614Z,10.50
2023-04-16T17:42:54.949Z,10.60
2023-04-16T17:45:31.488Z,9.30
2023-04-16T17:48:15.942Z,11.20
2023-04-16T17:50:54.002Z,10.80
2023-04-16T17:53:27.034Z,10.20
2023-04-16T17:55:59.294Z,12.40
2023-04-16T17:58:36.099Z,12.00
2023-04-16T18:01:11.048Z,12.20
2023-04-16T18:03:56.711Z,12.90
2023-04-16T18:06:39.089Z,13.50
2023-04-16T18:09:15.343Z,12.90
2023-04-16T18:11:47.995Z,14.50
2023-04-16T18:14:22.473Z,13.10
2023-04-16T18:16:54.982Z,14.90
2023-04-16T18:19:27.301Z,14.30
2023-04-16T18:22:01.151Z,16.70
2023-04-16T18:24:36.528Z,15.40
2023-04-16T18:27:09.093Z,16.70
2023-04-16T18:29:45.338Z,14.90
2023-04-16T18:32:18.308Z,14.60
2023-04-16T18:34:50.596Z,15.80
2023-04-16T18:37:23.060Z,17.00
2023-04-16T18:43:16.337Z,17.90
2023-04-16T18:48:23.590Z,15.60
2023-04-16T18:51:01.425Z,14.60
2023-04-16T18:53:34.659Z,16.50
2023-04-16T18:56:07.820Z,16.80
2023-04-16T18:58:41.393Z,15.70
2023-04-16T19:01:14.760Z,14.30
2023-04-16T19:03:48.447Z,15.60
2023-04-16T19:06:21.216Z,16.90
2023-04-16T19:08:53.441Z,18.80
2023-04-16T19:11:29.794Z,17.40
2023-04-16T19:14:13.516Z,14.70
2023-04-16T19:16:50.309Z,15.00
2023-04-16T19:19:29.459Z,14.90
2023-04-16T19:22:02.765Z,16.00
2023-04-16T19:24:40.757Z,15.20
2023-04-16T19:27:13.988Z,17.30
2023-04-16T19:29:48.850Z,19.50
2023-04-16T19:32:21.819Z,17.30
2023-04-16T19:34:54.591Z,17.70
2023-04-16T19:37:31.227Z,16.30
2023-04-16T19:40:21.187Z,18.00
2023-04-16T19:42:53.979Z,15.20
2023-04-16T19:45:29.240Z,17.90
2023-04-16T19:48:03.483Z,16.70
2023-04-16T19:50:35.684Z,19.80
2023-04-16T19:53:08.357Z,17.70
2023-04-16T19:55:42.997Z,18.40
2023-04-16T19:58:15.457Z,15.90
2023-04-16T20:00:47.606Z,17.00
2023-04-16T20:03:22.173Z,17.60
2023-04-16T20:08:24.841Z,15.20
2023-04-16T20:10:58.855Z,17.40
2023-04-16T20:13:31.702Z,17.50
2023-04-16T20:16:28.276Z,16.90
2023-04-16T20:19:08.086Z,14.60
2023-04-16T20:21:46.451Z,17.20
2023-04-16T20:24:19.175Z,17.10
2023-04-16T20:26:57.664Z,15.80
2023-04-16T20:29:29.396Z,18.10
2023-04-16T20:32:00.880Z,15.90
2023-04-16T20:34:32.476Z,13.80
2023-04-16T20:37:05.184Z,15.70
2023-04-16T20:39:39.213Z,16.90
2023-04-16T20:42:11.837Z,16.90
2023-04-16T20:44:50.788Z,16.90
2023-04-16T20:47:22.875Z,15.50
2023-04-16T20:49:55.161Z,14.50
2023-04-16T20:52:26.626Z,15.40
2023-04-16T20:54:58.195Z,18.00
2023-04-16T20:57:32.346Z,15.70
2023-04-16T21:00:06.012Z,19.90
2023-04-16T21:02:37.901Z,17.00
2023-04-16T21:05:15.237Z,15.20
2023-04-16T21:07:46.743Z,17.50
2023-04-16T21:10:20.504Z,16.50
2023-04-16T21:12:52.030Z,18.60
2023-04-16T21:15:23.417Z,17.10
2023-04-16T21:17:56.800Z,15.80
2023-04-16T21:20:30.347Z,16.30
2023-04-16T21:23:02.798Z,18.80
2023-04-16T21:25:37.575Z,15.20
2023-04-16T21:28:09.528Z,15.60
2023-04-16T21:30:40.836Z,15.90
2023-04-16T21:33:15.008Z,15.00
2023-04-16T21:35:46.363Z,16.90
2023-04-16T21:38:17.921Z,17.10
2023-04-16T21:40:51.483Z,19.20
2023-04-16T21:43:23.018Z,17.30
2023-04-16T21:45:56.891Z,19.50
2023-04-16T21:48:28.882Z,17.90
2023-04-16T21:51:06.932Z,17.80
2023-04-16T21:53:39.280Z,17.50
2023-04-16T21:56:11.505Z,17.00
2023-04-16T21:58:43.111Z,16.70
2023-04-16T22:01:14.595Z,18.30
2023-04-16T22:03:47.625Z,16.90
2023-04-16T22:06:20.728Z,19.00
2023-04-16T22:08:53.723Z,17.80
2023-04-16T22:11:25.135Z,17.40
2023-04-16T22:13:58.117Z,18.40
2023-04-16T22:16:29.559Z,16.70
2023-04-16T22:19:01.617Z,18.50
2023-04-16T22:21:33.053Z,20.10
2023-04-16T22:24:04.803Z,20.20
2023-04-16T22:26:36.148Z,19.50
2023-04-16T22:29:07.738Z,15.00
2023-04-16T22:31:39.369Z,23.10
2023-04-16T22:34:11.145Z,20.10
2023-04-16T22:36:42.667Z,18.20
2023-04-16T22:39:14.371Z,19.90
2023-04-16T22:41:45.954Z,20.90
2023-04-16T22:44:17.255Z,20.10
2023-04-16T22:46:49.102Z,20.00
2023-04-16T22:49:20.846Z,21.00
2023-04-16T22:51:52.327Z,21.90
2023-04-16T22:54:23.652Z,18.80
2023-04-16T22:56:55.020Z,17.40
2023-04-16T22:59:28.152Z,22.30
2023-04-16T23:01:59.831Z,21.80
2023-04-16T23:04:31.374Z,23.20
2023-04-16T23:07:02.834Z,19.70
2023-04-16T23:09:34.914Z,22.20
2023-04-16T23:12:06.741Z,24.80
2023-04-16T23:14:38.259Z,19.10
2023-04-16T23:17:09.858Z,19.80
2023-04-16T23:19:41.289Z,22.60
2023-04-16T23:22:13.221Z,21.70
2023-04-16T23:24:44.592Z,19.60
2023-04-16T23:27:16.035Z,17.60
2023-04-16T23:29:47.499Z,18.30
2023-04-16T23:32:18.986Z,19.00
2023-04-16T23:34:50.652Z,17.50
2023-04-16T23:37:22.362Z,15.50
2023-04-16T23:39:53.687Z,18.90
2023-04-16T23:42:25.147Z,17.40
2023-04-16T23:44:56.763Z,17.50
2023-04-16T23:47:28.312Z,21.80
2023-04-16T23:49:59.620Z,18.60
2023-04-16T23:52:30.894Z,22.00
2023-04-16T23:55:02.425Z,20.40
2023-04-16T23:57:34.006Z,20.40
